EGTF weather

Fairoaks Airport
Woking, England, United Kingdom

Public forecast

Using degrees Celsius for public forecast. Weather courtesy of forecast.io.

METAR (pilot weather report)

Closest report is London Heathrow Airport, 8.2 nm (15.2 km) NNE. Retrieved 2019/03/22 15:20 UTC (39 minutes ago):

EGLL 221520Z AUTO 23010KT 9999 OVC016 11/07 Q1027

TAF (pilot weather forecast)

Closest forecast is London Heathrow Airport, 8.2 nm (15.2 km) NNE. Retrieved 2019/03/22 12:00 UTC (4 hours ago):

TAF EGLL 221054Z 2212/2318 22008KT 9999 BKN018 PROB30 TEMPO 2212/2215 BKN014 TEMPO 2302/2310 7000 -RADZ BKN012 BECMG 2305/2308 02010KT